METAR AND TAF INFORMATION
METAR FOR EKVG
ADDS - METARS form results

(1122 UTC 19 January 2019)
Data provider http://aviationweather.gov/metar/data/
 
METAR text: EKVG 191120Z AUTO 12004KT 9999NDV FEW033/// 02/M01 Q1011
Conditions at: EKVG (SORVAAG/VAGAR , DK) observed 1120 UTC 19 January 2019
Temperature: 2.0°C (36°F)
Dewpoint: -1.0°C (30°F) [RH = 80%]
Pressure (altimeter): 29.85 inches Hg (1011.0 mb)
Winds: from the ESE (120 degrees) at 5 MPH (4 knots; 2.1 m/s)
Visibility: missing
Ceiling: at least 12,000 feet AGL
Clouds: few clouds at 3300 feet AGL
Weather: no significant weather observed at this time

METAR text: EKVG 191050Z AUTO 11005KT 9999NDV SCT033/// 03/M02 Q1011 RMK FEW032/// WIND SKEID 12013KT
Conditions at: EKVG (SORVAAG/VAGAR , DK) observed 1050 UTC 19 January 2019
Temperature: 3.0°C (37°F)
Dewpoint: -2.0°C (28°F) [RH = 70%]
Pressure (altimeter): 29.85 inches Hg (1011.0 mb)
Winds: from the ESE (110 degrees) at 6 MPH (5 knots; 2.6 m/s)
Visibility: missing
Ceiling: at least 12,000 feet AGL
Clouds: scattered clouds at 3300 feet AGL
Weather: no significant weather observed at this time

Forecast for: EKVG (SORVAAG/VAGAR , DK)
Text: TAF EKVG 190821Z 1909/1918 13008KT 9999 SCT030
Forecast period: 0900 to 1800 UTC 19 January 2019
Forecast type: FROM: standard forecast or significant change
Winds: from the SE (130 degrees) at 9 MPH (8 knots; 4.1 m/s)
Visibility: 6 or more miles 10+ km)
Ceiling: at least 12,000 feet AGL
Clouds: scattered clouds at 3000 feet AGL
Weather: no significant weather forecast for this period
Text: TEMPO 1915/1918 -SHRA BKN012
Forecast period: 1500 to 1800 UTC 19 January 2019
Forecast type: TEMPORARY: The following changes expected for less than half the time period
Visibility: missing
Ceiling: 1200 feet AGL
Clouds: broken clouds at 1200 feet AGL
Weather: -SHRA  (light rain showers)

 AIRPORT MAP

 RUNWAY INFORMATION
Runway 13 Runway length 5902 ft Runway width 98 ft
Runway elevation 268 ft Runway displaced threshold 0 ft Runway heading 118
Runway 31 Runway length 5902 ft Runway width 98 ft
Runway elevation 252 ft Runway displaced threshold 0 ft Runway heading 298

 AIRPORT FREQUENCIES
Type AFIS Name AFIS Frequency 124.85 MHZ

 AIRPORT NEAR NAVIGATION AIDS
Type NDB Name Myggenes Frequency 337 KHZ
Type NDB Name Nolso Frequency 404 KHZ
Type NDB Name Vagar Frequency 348 KHZ



Powered by Virtual Airlines Manager [v2.6.2]